Time;durP1;ratioP1;P1;durP2;ratioP2;P2;SDS_P1;SDS_P2;PMS_P1;PMS_P2;Temp;Humidity;BMP_temperature;BMP_pressure;BME280_temperature;BME280_humidity;BME280_pressure;Samples;Min_cycle;Max_cycle;Signal;HPM_P1;HPM_P2
2023/08/20 00:00:25;;;;;;;19.60;18.10;;;26.60;99.90;;;;;;5012096;28;20444;-49
2023/08/20 00:02:59;;;;;;;18.37;16.87;;;26.60;99.90;;;;;;5011643;28;20463;-50
2023/08/20 00:05:26;;;;;;;18.37;16.87;;;26.60;99.90;;;;;;5013412;28;20463;-50
2023/08/20 00:07:53;;;;;;;18.33;16.80;;;26.60;99.90;;;;;;5015502;28;20547;-50
2023/08/20 00:10:20;;;;;;;16.90;15.50;;;26.60;99.90;;;;;;5015608;28;20476;-49
2023/08/20 00:12:46;;;;;;;17.23;15.83;;;26.50;99.90;;;;;;5015488;28;20437;-50
2023/08/20 00:15:14;;;;;;;16.50;15.27;;;26.50;99.90;;;;;;5015345;28;20911;-49
2023/08/20 00:17:42;;;;;;;17.00;15.50;;;26.50;99.90;;;;;;5014892;28;20953;-50
2023/08/20 00:20:12;;;;;;;19.00;17.47;;;26.50;99.90;;;;;;5014820;28;20937;-50
2023/08/20 00:22:40;;;;;;;18.70;17.10;;;26.50;99.90;;;;;;5014943;28;20436;-50
2023/08/20 00:25:08;;;;;;;19.90;18.20;;;26.50;99.90;;;;;;5014941;28;20820;-50
2023/08/20 00:27:35;;;;;;;18.87;17.37;;;26.50;99.90;;;;;;5013225;28;20505;-50
2023/08/20 00:30:01;;;;;;;17.30;16.00;;;26.40;99.90;;;;;;5013292;28;20963;-50
2023/08/20 00:32:29;;;;;;;16.60;15.17;;;26.40;99.90;;;;;;5014618;28;20460;-50
2023/08/20 00:34:56;;;;;;;18.87;16.97;;;26.50;99.90;;;;;;5014518;28;20971;-49
2023/08/20 00:37:23;;;;;;;19.10;17.50;;;26.40;99.90;;;;;;5013122;28;20499;-50
2023/08/20 00:39:50;;;;;;;17.33;16.03;;;26.40;99.90;;;;;;5014716;28;20432;-50
2023/08/20 00:42:16;;;;;;;16.17;14.77;;;26.40;99.90;;;;;;5014432;28;20429;-51
2023/08/20 00:44:45;;;;;;;18.47;16.87;;;26.40;99.90;;;;;;5013132;28;20928;-50
2023/08/20 00:47:13;;;;;;;16.97;15.57;;;26.40;99.90;;;;;;5013879;28;20498;-50
2023/08/20 00:49:42;;;;;;;17.10;15.80;;;26.30;99.90;;;;;;5012829;28;20816;-50
2023/08/20 00:52:10;;;;;;;17.17;15.67;;;26.20;99.90;;;;;;5012388;28;20485;-50
2023/08/20 00:54:37;;;;;;;16.20;14.67;;;26.00;99.90;;;;;;5014078;28;21161;-50
2023/08/20 00:57:04;;;;;;;17.50;16.10;;;26.30;99.90;;;;;;5013927;28;20443;-50
2023/08/20 00:59:33;;;;;;;16.23;14.93;;;26.30;99.90;;;;;;5012575;28;20476;-50
2023/08/20 01:02:00;;;;;;;17.30;15.70;;;26.30;99.90;;;;;;5013813;28;20439;-50
2023/08/20 01:04:29;;;;;;;17.43;16.10;;;26.30;99.90;;;;;;5012651;28;20488;-50
2023/08/20 01:07:08;;;;;;;19.00;15.67;;;26.20;99.90;;;;;;5013652;28;20533;-50
2023/08/20 01:09:46;;;;;;;18.50;16.97;;;26.20;99.90;;;;;;5013996;28;20535;-50
2023/08/20 01:12:15;;;;;;;16.90;15.50;;;26.20;99.90;;;;;;5013797;28;20491;-50
2023/08/20 01:14:41;;;;;;;15.90;14.40;;;26.20;99.90;;;;;;5014032;28;20951;-50
2023/08/20 01:17:08;;;;;;;16.20;14.90;;;26.10;99.90;;;;;;5012941;28;20439;-50
2023/08/20 01:19:35;;;;;;;16.50;15.20;;;26.20;99.90;;;;;;5012591;28;20455;-50
2023/08/20 01:22:33;;;;;;;16.87;15.47;;;26.10;99.90;;;;;;5013929;28;20440;-50
2023/08/20 01:25:09;;;;;;;16.97;15.57;;;26.10;99.90;;;;;;5012294;28;20469;-50
2023/08/20 01:27:48;;;;;;;17.47;15.80;;;26.00;99.90;;;;;;5011928;28;20448;-49
2023/08/20 01:30:16;;;;;;;16.47;15.07;;;26.00;99.90;;;;;;5013645;28;20543;-50
2023/08/20 01:32:43;;;;;;;16.07;14.67;;;25.90;99.90;;;;;;5013492;28;20428;-49
2023/08/20 01:35:14;;;;;;;15.23;13.83;;;25.90;99.90;;;;;;5012039;28;20637;-50
2023/08/20 01:37:40;;;;;;;16.57;15.27;;;25.80;99.90;;;;;;5013621;28;20436;-50
2023/08/20 01:40:10;;;;;;;17.27;15.47;;;25.70;99.90;;;;;;5013583;28;20436;-50
2023/08/20 01:42:38;;;;;;;17.27;15.47;;;25.80;99.90;;;;;;5013762;28;20475;-49
2023/08/20 01:45:07;;;;;;;17.80;15.93;;;25.70;99.90;;;;;;5013443;28;20469;-50
2023/08/20 01:47:35;;;;;;;17.53;16.10;;;25.70;99.90;;;;;;5013500;28;20440;-49
2023/08/20 01:50:01;;;;;;;16.40;14.93;;;25.60;99.90;;;;;;5013738;28;20447;-48
2023/08/20 01:52:29;;;;;;;17.03;15.57;;;25.60;99.90;;;;;;5013585;28;20484;-49
2023/08/20 01:54:55;;;;;;;15.70;14.30;;;25.30;99.90;;;;;;5013360;28;20979;-49
2023/08/20 01:57:22;;;;;;;16.27;14.87;;;25.50;99.90;;;;;;5012908;28;20850;-49
2023/08/20 01:59:50;;;;;;;16.77;15.23;;;25.20;99.90;;;;;;5011962;28;20484;-48
2023/08/20 02:02:16;;;;;;;16.43;15.13;;;25.50;99.90;;;;;;5011428;28;20495;-50
2023/08/20 02:04:44;;;;;;;18.90;15.40;;;25.40;99.90;;;;;;5011615;28;20518;-50
2023/08/20 02:07:11;;;;;;;16.93;15.23;;;25.40;99.90;;;;;;5011230;28;20967;-50
2023/08/20 02:09:37;;;;;;;17.70;16.10;;;25.30;99.90;;;;;;5011848;28;20448;-50
2023/08/20 02:12:05;;;;;;;17.07;15.57;;;25.30;99.90;;;;;;5011670;28;20534;-50
2023/08/20 02:14:34;;;;;;;16.53;15.03;;;25.30;99.90;;;;;;5011414;28;20602;-50
2023/08/20 02:17:01;;;;;;;19.33;16.27;;;25.20;99.90;;;;;;5012340;28;20436;-49
2023/08/20 02:19:28;;;;;;;16.40;14.80;;;25.20;99.90;;;;;;5012651;28;20432;-50
2023/08/20 02:21:56;;;;;;;16.73;15.27;;;25.20;99.90;;;;;;5011354;28;20448;-50
2023/08/20 02:24:22;;;;;;;17.40;15.83;;;24.90;99.90;;;;;;5011352;28;20649;-49
2023/08/20 02:26:49;;;;;;;17.57;15.77;;;24.90;99.90;;;;;;5010847;28;20535;-50
2023/08/20 02:29:16;;;;;;;17.17;15.43;;;24.80;99.90;;;;;;5012441;28;20428;-49
2023/08/20 02:31:42;;;;;;;17.57;15.90;;;25.10;99.90;;;;;;5012510;28;20821;-50
2023/08/20 02:34:09;;;;;;;18.23;16.43;;;25.10;99.90;;;;;;5012853;28;20451;-49
2023/08/20 02:36:36;;;;;;;16.20;14.73;;;25.10;99.90;;;;;;5011272;28;20455;-50
2023/08/20 02:39:05;;;;;;;17.60;16.00;;;25.00;99.90;;;;;;5012682;28;20436;-50
2023/08/20 02:41:31;;;;;;;16.90;15.50;;;25.00;99.90;;;;;;5012271;28;20465;-50
2023/08/20 02:43:58;;;;;;;17.00;15.60;;;24.90;99.90;;;;;;5012269;28;20806;-50
2023/08/20 02:46:25;;;;;;;15.80;14.40;;;24.90;99.90;;;;;;5012180;28;20433;-50
2023/08/20 02:48:51;;;;;;;17.03;15.43;;;24.60;99.90;;;;;;5012106;28;20443;-49
2023/08/20 02:51:18;;;;;;;17.30;15.60;;;24.90;99.90;;;;;;5011062;28;20468;-50
2023/08/20 02:53:44;;;;;;;16.43;15.13;;;25.00;99.90;;;;;;5012503;28;20767;-51
2023/08/20 02:56:12;;;;;;;16.90;15.20;;;25.00;99.90;;;;;;5012167;28;20456;-50
2023/08/20 02:58:39;;;;;;;16.90;15.40;;;24.90;99.90;;;;;;5011647;28;20464;-50
2023/08/20 03:01:06;;;;;;;15.90;14.50;;;24.90;99.90;;;;;;5010954;28;20894;-49
2023/08/20 03:03:32;;;;;;;19.73;16.10;;;24.80;99.90;;;;;;5011180;28;20454;-50
2023/08/20 03:05:59;;;;;;;16.33;14.67;;;24.70;99.90;;;;;;5010957;28;20479;-50
2023/08/20 03:08:26;;;;;;;17.33;15.73;;;24.70;99.90;;;;;;5010680;28;20448;-50
2023/08/20 03:10:52;;;;;;;17.57;16.03;;;24.70;99.90;;;;;;5011993;28;20482;-49
2023/08/20 03:13:20;;;;;;;20.73;15.30;;;24.70;99.90;;;;;;5010896;28;20453;-49
2023/08/20 03:15:47;;;;;;;16.90;15.27;;;24.70;99.90;;;;;;5011967;28;20838;-50
2023/08/20 03:18:13;;;;;;;16.93;15.30;;;24.60;99.90;;;;;;5011680;28;20430;-51
2023/08/20 03:20:40;;;;;;;16.47;15.17;;;24.60;99.90;;;;;;5010992;28;20973;-50
2023/08/20 03:23:06;;;;;;;17.13;15.27;;;24.60;99.90;;;;;;5011999;28;20430;-50
2023/08/20 03:25:33;;;;;;;17.50;16.00;;;24.60;99.90;;;;;;5012127;28;20462;-50
2023/08/20 03:28:00;;;;;;;16.23;14.67;;;24.50;99.90;;;;;;5010532;28;20455;-50
2023/08/20 03:30:28;;;;;;;16.93;15.53;;;24.50;99.90;;;;;;5010602;28;20453;-50
2023/08/20 03:32:55;;;;;;;17.30;15.73;;;24.50;99.90;;;;;;5010556;28;21052;-50
2023/08/20 03:35:22;;;;;;;16.80;15.10;;;24.50;99.90;;;;;;5012179;28;20947;-50
2023/08/20 03:37:48;;;;;;;16.63;15.13;;;24.40;99.90;;;;;;5010255;28;20444;-50
2023/08/20 03:40:15;;;;;;;15.80;14.10;;;24.30;99.90;;;;;;5011243;28;20499;-50
2023/08/20 03:42:43;;;;;;;15.93;14.60;;;24.40;99.90;;;;;;5014369;28;20448;-50
2023/08/20 03:45:10;;;;;;;17.73;16.13;;;24.50;99.90;;;;;;5014510;28;20503;-50
2023/08/20 03:47:38;;;;;;;16.70;15.30;;;24.30;99.90;;;;;;5013823;28;20490;-50
2023/08/20 03:50:05;;;;;;;16.87;15.43;;;24.30;99.90;;;;;;5014123;28;20525;-50
2023/08/20 03:52:32;;;;;;;17.17;15.57;;;24.30;99.90;;;;;;5013990;28;20472;-50
2023/08/20 03:54:58;;;;;;;17.13;15.50;;;24.60;99.90;;;;;;5015370;28;20458;-49
2023/08/20 03:57:25;;;;;;;16.40;14.70;;;24.20;99.90;;;;;;5013693;28;20463;-50
2023/08/20 03:59:51;;;;;;;16.53;15.03;;;24.20;99.90;;;;;;5015212;28;20432;-49
2023/08/20 04:02:18;;;;;;;17.30;15.67;;;24.20;99.90;;;;;;5015241;28;20436;-50
2023/08/20 04:04:46;;;;;;;16.73;15.37;;;24.10;99.90;;;;;;5015246;28;20988;-50
2023/08/20 04:07:13;;;;;;;17.13;15.53;;;24.10;99.90;;;;;;5013501;28;20893;-51
2023/08/20 04:09:40;;;;;;;16.27;14.77;;;24.10;99.90;;;;;;5013620;28;20805;-50
2023/08/20 04:12:07;;;;;;;16.90;15.10;;;24.00;99.90;;;;;;5015025;28;20476;-50
2023/08/20 04:14:33;;;;;;;16.13;14.73;;;24.00;99.90;;;;;;5013649;28;20474;-49
2023/08/20 04:17:00;;;;;;;17.80;16.07;;;24.00;99.90;;;;;;5013434;28;20498;-50
2023/08/20 04:19:27;;;;;;;17.30;15.70;;;23.90;99.90;;;;;;5014769;28;20490;-50
2023/08/20 04:21:55;;;;;;;18.03;16.23;;;23.90;99.90;;;;;;5014822;28;20463;-52
2023/08/20 04:24:21;;;;;;;17.13;15.73;;;24.30;99.90;;;;;;5014783;28;21002;-51
2023/08/20 04:26:49;;;;;;;18.57;16.97;;;23.90;99.90;;;;;;5013231;28;20457;-51
2023/08/20 04:29:25;;;;;;;17.30;15.80;;;23.60;99.90;;;;;;5013676;28;20448;-52
2023/08/20 04:31:51;;;;;;;19.50;17.50;;;23.90;99.90;;;;;;5014428;28;20486;-51
2023/08/20 04:34:18;;;;;;;16.77;15.33;;;23.50;99.90;;;;;;5013165;28;20473;-50
2023/08/20 04:36:48;;;;;;;19.27;17.60;;;23.90;99.90;;;;;;5013205;28;20867;-51
2023/08/20 04:39:16;;;;;;;17.90;16.40;;;23.60;99.90;;;;;;5013199;28;20545;-51
2023/08/20 04:41:47;;;;;;;16.87;15.37;;;23.90;99.90;;;;;;5013277;28;20457;-50
2023/08/20 04:44:16;;;;;;;17.80;15.93;;;23.70;99.90;;;;;;5013016;28;20480;-51
2023/08/20 04:46:44;;;;;;;17.90;16.30;;;24.20;99.90;;;;;;5012899;28;20899;-51
2023/08/20 04:49:11;;;;;;;18.70;16.90;;;23.80;99.90;;;;;;5013087;28;20477;-50
2023/08/20 04:51:39;;;;;;;17.70;15.90;;;23.80;99.90;;;;;;5011984;28;20479;-51
2023/08/20 04:54:06;;;;;;;17.03;15.63;;;23.90;99.90;;;;;;5012936;28;20826;-51
2023/08/20 04:56:33;;;;;;;19.50;17.57;;;23.90;99.90;;;;;;5014345;28;20436;-51
2023/08/20 04:59:00;;;;;;;18.03;16.33;;;23.50;99.90;;;;;;5013066;28;20536;-51
2023/08/20 05:01:50;;;;;;;16.87;15.47;;;23.90;99.90;;;;;;5014408;28;20449;-51
2023/08/20 05:04:18;;;;;;;16.37;14.97;;;23.90;99.90;;;;;;5012831;28;20982;-50
2023/08/20 05:06:45;;;;;;;18.87;17.07;;;23.90;99.90;;;;;;5012458;28;20453;-50
2023/08/20 05:09:12;;;;;;;18.20;16.50;;;24.00;99.90;;;;;;5012611;28;20454;-50
2023/08/20 05:11:40;;;;;;;19.83;18.03;;;24.10;99.90;;;;;;5012828;28;20598;-50
2023/08/20 05:14:06;;;;;;;19.30;17.43;;;24.00;99.90;;;;;;5012636;28;20555;-50
2023/08/20 05:16:33;;;;;;;20.77;18.63;;;23.90;99.90;;;;;;5013843;28;20935;-50
2023/08/20 05:19:00;;;;;;;20.40;18.50;;;23.90;99.90;;;;;;5012362;28;20448;-50
2023/08/20 05:21:26;;;;;;;19.57;17.67;;;24.10;99.90;;;;;;5012647;28;20871;-50
2023/08/20 05:23:53;;;;;;;19.43;17.60;;;24.20;99.90;;;;;;5012268;28;20535;-50
2023/08/20 05:26:19;;;;;;;19.63;17.63;;;24.20;99.90;;;;;;5012038;28;20452;-49
2023/08/20 05:28:47;;;;;;;20.37;18.43;;;24.20;99.90;;;;;;5012074;28;20424;-50
2023/08/20 05:31:14;;;;;;;20.33;18.53;;;24.50;99.90;;;;;;5012270;28;20471;-50
2023/08/20 05:33:41;;;;;;;20.27;18.20;;;24.60;99.90;;;;;;5012127;28;20902;-50
2023/08/20 05:36:08;;;;;;;20.00;18.30;;;24.10;99.90;;;;;;5012109;28;20546;-50
2023/08/20 05:38:34;;;;;;;18.60;16.97;;;24.20;99.90;;;;;;5011702;28;21037;-51
2023/08/20 05:41:01;;;;;;;19.83;18.13;;;24.30;99.90;;;;;;5011979;28;20457;-50
2023/08/20 05:43:28;;;;;;;19.67;17.97;;;24.10;99.90;;;;;;5012279;28;20448;-51
2023/08/20 05:45:57;;;;;;;18.70;17.17;;;24.40;99.90;;;;;;5012099;28;20476;-50
2023/08/20 05:48:24;;;;;;;19.37;17.63;;;24.50;99.90;;;;;;5011879;28;20547;-51
2023/08/20 05:50:50;;;;;;;18.00;16.40;;;24.50;99.90;;;;;;5013221;28;20467;-50
2023/08/20 05:53:17;;;;;;;19.30;17.70;;;24.70;99.90;;;;;;5012941;28;20841;-51
2023/08/20 05:55:45;;;;;;;19.77;17.90;;;24.70;99.90;;;;;;5011512;28;20472;-51
2023/08/20 05:58:12;;;;;;;17.93;16.47;;;24.70;99.90;;;;;;5011427;28;20445;-50
2023/08/20 06:00:39;;;;;;;18.70;17.20;;;24.90;99.90;;;;;;5011811;28;20889;-50
2023/08/20 06:03:07;;;;;;;18.90;17.20;;;24.90;99.90;;;;;;5012683;28;20425;-50
2023/08/20 06:05:35;;;;;;;19.63;17.63;;;25.10;99.90;;;;;;5011555;28;20471;-51
2023/08/20 06:08:02;;;;;;;18.33;16.50;;;25.00;99.90;;;;;;5012441;28;20432;-50
2023/08/20 06:10:28;;;;;;;19.17;17.67;;;25.10;99.90;;;;;;5013171;28;20433;-50
2023/08/20 06:12:56;;;;;;;17.37;15.80;;;25.10;99.90;;;;;;5012898;28;20481;-50
2023/08/20 06:15:23;;;;;;;18.10;16.33;;;25.20;99.90;;;;;;5012930;28;21046;-50
2023/08/20 06:17:49;;;;;;;19.60;17.77;;;25.20;99.90;;;;;;5012875;28;20451;-51
2023/08/20 06:20:18;;;;;;;18.37;16.67;;;25.30;99.90;;;;;;5013099;28;20444;-51
2023/08/20 06:22:45;;;;;;;18.73;17.03;;;25.00;99.90;;;;;;5012798;28;20519;-51
2023/08/20 06:25:11;;;;;;;18.40;16.80;;;25.00;99.90;;;;;;5012648;28;20456;-51
2023/08/20 06:27:38;;;;;;;17.33;15.70;;;25.10;99.90;;;;;;5011257;28;20453;-52
2023/08/20 06:30:06;;;;;;;21.97;18.17;;;25.00;99.90;;;;;;5012461;28;20440;-50
2023/08/20 06:32:33;;;;;;;18.03;16.20;;;25.20;99.90;;;;;;5012486;28;20473;-51
2023/08/20 06:34:59;;;;;;;17.73;16.20;;;25.20;99.90;;;;;;5012341;28;20877;-51
2023/08/20 06:37:27;;;;;;;17.60;16.00;;;25.50;99.90;;;;;;5012114;28;20435;-51
2023/08/20 06:39:54;;;;;;;18.90;17.00;;;25.60;99.90;;;;;;5012693;28;20433;-51
2023/08/20 06:42:20;;;;;;;18.83;17.07;;;25.50;99.90;;;;;;5012573;28;20944;-51
2023/08/20 06:44:47;;;;;;;17.43;15.80;;;25.60;99.90;;;;;;5010968;28;20869;-49
2023/08/20 06:47:14;;;;;;;18.43;16.83;;;25.70;99.90;;;;;;5012081;28;20441;-50
2023/08/20 06:49:41;;;;;;;17.93;16.17;;;25.80;99.90;;;;;;5012473;28;20821;-49
2023/08/20 06:52:08;;;;;;;18.67;16.67;;;26.20;99.90;;;;;;5012381;28;20447;-50
2023/08/20 06:54:36;;;;;;;18.37;16.70;;;25.80;99.90;;;;;;5012270;28;20448;-50
2023/08/20 06:57:02;;;;;;;17.50;15.90;;;25.70;99.90;;;;;;5012111;28;20934;-50
2023/08/20 06:59:29;;;;;;;17.33;15.83;;;25.60;99.90;;;;;;5012277;28;20443;-51
2023/08/20 07:01:55;;;;;;;18.43;16.50;;;25.60;99.90;;;;;;5012007;28;20432;-49
2023/08/20 07:04:22;;;;;;;17.90;16.10;;;25.50;99.90;;;;;;5011899;28;20832;-50
2023/08/20 07:06:49;;;;;;;19.00;17.00;;;25.50;99.90;;;;;;5011583;28;20812;-49
2023/08/20 07:09:16;;;;;;;19.00;17.13;;;25.40;99.90;;;;;;5012081;28;20437;-50
2023/08/20 07:11:44;;;;;;;19.00;17.40;;;25.30;99.90;;;;;;5011921;28;20935;-50
2023/08/20 07:14:10;;;;;;;19.23;17.53;;;25.20;99.90;;;;;;5011833;28;20484;-50
2023/08/20 07:16:37;;;;;;;16.70;15.30;;;25.20;99.90;;;;;;5014912;28;20436;-48
2023/08/20 07:19:04;;;;;;;17.97;16.37;;;25.20;99.90;;;;;;5015868;28;20796;-50
2023/08/20 07:21:30;;;;;;;18.90;16.90;;;25.20;99.90;;;;;;5016021;28;20428;-49
2023/08/20 07:23:57;;;;;;;18.53;16.40;;;25.10;99.90;;;;;;5014475;28;20428;-50
2023/08/20 07:26:23;;;;;;;16.90;15.30;;;25.40;99.90;;;;;;5015898;28;20471;-50
2023/08/20 07:28:57;;;;;;;18.13;16.50;;;25.20;99.90;;;;;;5015371;28;20429;-50
2023/08/20 07:31:24;;;;;;;17.80;16.20;;;25.20;99.90;;;;;;5015859;28;20468;-50
2023/08/20 07:33:52;;;;;;;17.13;15.57;;;25.30;99.90;;;;;;5015346;28;20483;-50
2023/08/20 07:36:21;;;;;;;17.67;16.20;;;25.50;99.90;;;;;;5015503;28;20442;-50
2023/08/20 07:38:48;;;;;;;17.60;16.00;;;25.40;99.90;;;;;;5015278;28;20956;-51
2023/08/20 07:41:15;;;;;;;17.80;16.30;;;25.50;99.90;;;;;;5015433;28;20919;-51
2023/08/20 07:43:42;;;;;;;16.63;15.13;;;25.80;99.90;;;;;;5015416;28;20519;-51
2023/08/20 07:46:11;;;;;;;16.37;14.97;;;26.30;99.90;;;;;;5015034;28;20514;-50
2023/08/20 07:48:37;;;;;;;16.50;15.10;;;26.10;99.90;;;;;;5015263;28;20443;-50
2023/08/20 07:51:04;;;;;;;17.20;15.60;;;26.20;99.90;;;;;;5015499;28;20442;-50
2023/08/20 07:53:31;;;;;;;17.47;15.53;;;26.10;99.90;;;;;;5015182;28;20475;-49
2023/08/20 07:55:58;;;;;;;18.63;17.03;;;26.00;99.90;;;;;;5015084;28;20475;-50
2023/08/20 07:58:24;;;;;;;17.97;16.17;;;26.00;99.90;;;;;;5013409;28;20475;-50
2023/08/20 08:00:56;;;;;;;18.57;16.97;;;25.80;99.90;;;;;;5015262;28;20432;-51
2023/08/20 08:03:26;;;;;;;17.07;15.57;;;25.70;99.90;;;;;;5014969;28;20435;-50
2023/08/20 08:05:53;;;;;;;17.33;15.67;;;25.70;99.90;;;;;;5014838;28;20460;-51
2023/08/20 08:08:20;;;;;;;18.00;16.10;;;25.80;99.90;;;;;;5013033;28;20450;-51
2023/08/20 08:10:47;;;;;;;18.20;16.50;;;25.80;99.90;;;;;;5015071;28;20443;-54
2023/08/20 08:13:15;;;;;;;17.67;16.07;;;25.90;99.90;;;;;;5014742;28;20484;-50
2023/08/20 08:15:41;;;;;;;18.10;16.67;;;25.90;99.90;;;;;;5015106;28;20459;-51
2023/08/20 08:18:08;;;;;;;17.80;16.20;;;25.80;99.90;;;;;;5014785;28;20475;-49
2023/08/20 08:20:37;;;;;;;18.03;16.37;;;25.70;99.90;;;;;;5014696;28;20443;-50
2023/08/20 08:23:04;;;;;;;16.70;15.23;;;25.70;99.90;;;;;;5013421;28;20514;-52
2023/08/20 08:25:31;;;;;;;17.27;15.80;;;25.70;99.90;;;;;;5013261;28;20468;-50
2023/08/20 08:27:58;;;;;;;17.17;15.47;;;25.60;99.90;;;;;;5014568;28;20445;-50
2023/08/20 08:30:24;;;;;;;16.50;14.90;;;25.60;99.90;;;;;;5014681;28;20536;-51
2023/08/20 08:32:51;;;;;;;17.93;16.33;;;25.60;99.90;;;;;;5014822;28;20480;-51
2023/08/20 08:35:18;;;;;;;15.20;13.90;;;25.60;99.90;;;;;;5014178;28;20540;-49
2023/08/20 08:37:46;;;;;;;16.17;13.60;;;25.70;99.90;;;;;;5014213;28;20433;-52
2023/08/20 08:40:13;;;;;;;16.57;14.90;;;25.80;99.90;;;;;;5014413;28;20436;-51
2023/08/20 08:42:41;;;;;;;15.50;13.93;;;25.80;99.90;;;;;;5014415;28;20440;-50
2023/08/20 08:45:10;;;;;;;15.07;13.87;;;25.80;99.90;;;;;;5014053;28;21026;-50
2023/08/20 08:47:37;;;;;;;15.10;13.60;;;25.80;99.90;;;;;;5013764;28;20513;-53
2023/08/20 08:50:06;;;;;;;13.70;12.50;;;25.90;99.90;;;;;;5014452;28;20450;-50
2023/08/20 08:52:33;;;;;;;13.90;12.60;;;26.00;99.90;;;;;;5014179;28;20433;-52
2023/08/20 08:55:01;;;;;;;11.20;10.10;;;26.20;99.90;;;;;;5013924;28;20842;-51
2023/08/20 08:57:28;;;;;;;12.10;10.97;;;26.20;99.90;;;;;;5013839;28;20447;-50
2023/08/20 08:59:54;;;;;;;10.97;9.87;;;26.30;99.90;;;;;;5013951;28;20448;-50
2023/08/20 09:02:23;;;;;;;10.00;9.10;;;26.40;99.90;;;;;;5014045;28;20439;-51
2023/08/20 09:04:49;;;;;;;9.77;8.97;;;26.50;99.90;;;;;;5014182;28;20487;-50
2023/08/20 09:07:16;;;;;;;10.53;9.57;;;26.70;99.90;;;;;;5013455;28;20466;-51
2023/08/20 09:09:44;;;;;;;11.10;10.20;;;26.80;99.90;;;;;;5014023;28;20436;-51
2023/08/20 09:12:17;;;;;;;11.23;10.23;;;26.90;99.90;;;;;;5012649;28;20920;-52
2023/08/20 09:14:47;;;;;;;9.83;8.90;;;27.00;99.90;;;;;;5012524;28;20487;-50
2023/08/20 09:17:14;;;;;;;9.47;8.57;;;24.20;99.90;;;;;;5013557;28;20884;-51
2023/08/20 09:19:43;;;;;;;9.67;8.70;;;27.00;99.90;;;;;;5013722;28;20865;-52
2023/08/20 09:22:11;;;;;;;9.10;8.30;;;27.10;99.90;;;;;;5014056;28;20460;-52
2023/08/20 09:24:42;;;;;;;8.80;7.97;;;27.20;99.90;;;;;;5013899;28;20487;-52
2023/08/20 09:27:09;;;;;;;7.80;7.10;;;27.30;99.90;;;;;;5013385;28;20432;-50
2023/08/20 09:29:45;;;;;;;14.63;9.57;;;27.40;99.90;;;;;;5013476;28;20451;-51
2023/08/20 09:32:16;;;;;;;10.37;9.37;;;27.40;99.90;;;;;;5013469;28;20478;-52
2023/08/20 09:34:43;;;;;;;8.63;7.93;;;27.40;99.90;;;;;;5011606;28;20484;-50
2023/08/20 09:37:14;;;;;;;9.27;8.43;;;27.40;99.90;;;;;;5012934;28;20517;-50
2023/08/20 09:39:42;;;;;;;9.10;8.40;;;27.40;99.90;;;;;;5012919;28;20436;-50
2023/08/20 09:42:10;;;;;;;9.53;8.60;;;27.40;99.90;;;;;;5013482;28;20437;-51
2023/08/20 09:44:40;;;;;;;9.03;8.17;;;27.30;99.90;;;;;;5013337;28;20567;-51
2023/08/20 09:47:09;;;;;;;9.17;8.27;;;27.20;99.90;;;;;;5012424;28;20442;-52
2023/08/20 09:49:40;;;;;;;9.87;8.87;;;27.20;99.90;;;;;;5013276;28;20528;-51
2023/08/20 09:52:08;;;;;;;9.40;8.50;;;27.10;99.90;;;;;;5013260;28;20806;-51
2023/08/20 09:54:54;;;;;;;11.07;8.30;;;27.10;99.90;;;;;;5012854;28;20494;-50
2023/08/20 09:57:28;;;;;;;8.40;7.60;;;27.10;99.90;;;;;;5012975;28;20439;-53
2023/08/20 09:59:56;;;;;;;10.13;7.50;;;27.20;99.90;;;;;;5013550;28;20454;-52
2023/08/20 10:02:25;;;;;;;8.30;7.60;;;27.20;99.90;;;;;;5013037;28;20432;-52
2023/08/20 10:04:54;;;;;;;7.47;6.87;;;27.20;99.90;;;;;;5013096;28;20893;-51
2023/08/20 10:07:24;;;;;;;7.90;7.20;;;27.10;99.90;;;;;;5011376;28;20448;-51
2023/08/20 10:09:52;;;;;;;7.50;6.80;;;27.20;99.90;;;;;;5013464;28;20514;-51
2023/08/20 10:12:19;;;;;;;7.73;6.97;;;27.20;99.90;;;;;;5013778;28;20519;-52
2023/08/20 10:14:46;;;;;;;7.67;6.67;;;27.20;99.90;;;;;;5013248;28;20491;-51
2023/08/20 10:17:15;;;;;;;8.90;6.47;;;27.20;99.90;;;;;;5013004;28;20483;-52
2023/08/20 10:19:43;;;;;;;6.60;6.00;;;27.20;99.90;;;;;;5012852;28;20444;-51
2023/08/20 10:22:10;;;;;;;7.00;6.30;;;27.30;99.90;;;;;;5011205;28;20989;-50
2023/08/20 10:24:49;;;;;;;8.90;6.93;;;27.20;99.90;;;;;;5012615;28;20463;-51
2023/08/20 10:27:26;;;;;;;9.13;5.10;;;27.30;99.90;;;;;;5012533;28;20443;-51
2023/08/20 10:29:54;;;;;;;5.30;4.80;;;27.30;99.90;;;;;;5011552;28;20450;-50
2023/08/20 10:32:41;;;;;;;5.30;4.80;;;27.30;99.90;;;;;;5012351;28;20460;-51
2023/08/20 10:35:09;;;;;;;5.90;4.60;;;27.30;99.90;;;;;;5012106;28;20515;-51
2023/08/20 10:37:37;;;;;;;7.00;5.10;;;27.30;99.90;;;;;;5011858;28;20436;-51
2023/08/20 10:40:04;;;;;;;5.00;4.00;;;27.40;99.90;;;;;;5012404;28;20870;-51
2023/08/20 10:42:32;;;;;;;3.93;3.53;;;27.50;99.90;;;;;;5012266;28;20873;-51
2023/08/20 10:45:00;;;;;;;3.87;3.57;;;27.50;99.50;;;;;;5012146;28;20542;-52
2023/08/20 10:47:35;;;;;;;4.57;4.17;;;27.50;99.00;;;;;;5011399;28;20443;-50
2023/08/20 10:50:02;;;;;;;4.03;3.57;;;27.60;98.80;;;;;;5011272;28;20439;-51
2023/08/20 10:52:30;;;;;;;4.40;3.57;;;27.50;98.00;;;;;;5012263;28;20439;-50
2023/08/20 10:54:57;;;;;;;4.83;3.50;;;27.40;97.80;;;;;;5011238;28;20833;-50
2023/08/20 10:57:34;;;;;;;4.33;3.83;;;27.40;97.70;;;;;;5013106;28;20432;-50
2023/08/20 11:00:09;;;;;;;5.00;3.57;;;27.10;97.50;;;;;;5011997;28;20511;-51
2023/08/20 11:02:36;;;;;;;4.60;3.70;;;27.40;97.70;;;;;;5011633;28;20450;-50
2023/08/20 11:05:04;;;;;;;4.27;3.20;;;27.50;97.80;;;;;;5011764;28;20456;-51
2023/08/20 11:07:34;;;;;;;4.07;3.67;;;27.50;97.40;;;;;;5011346;28;20448;-50
2023/08/20 11:10:02;;;;;;;4.93;3.27;;;27.60;97.10;;;;;;5011302;28;20460;-51
2023/08/20 11:12:30;;;;;;;4.30;3.00;;;27.60;96.70;;;;;;5011891;28;20428;-51
2023/08/20 11:15:01;;;;;;;3.73;3.13;;;27.60;96.70;;;;;;5011545;28;20491;-51
2023/08/20 11:17:27;;;;;;;4.13;3.30;;;27.60;96.40;;;;;;5011398;28;20792;-50
2023/08/20 11:19:54;;;;;;;3.43;2.90;;;27.40;96.40;;;;;;5011546;28;20436;-50
2023/08/20 11:22:21;;;;;;;3.50;3.13;;;27.70;96.10;;;;;;5011646;28;20439;-51
2023/08/20 11:24:49;;;;;;;3.40;3.03;;;27.80;96.10;;;;;;5011223;28;20452;-51
2023/08/20 11:27:16;;;;;;;4.07;3.60;;;27.50;95.90;;;;;;5011364;28;20804;-51
2023/08/20 11:29:43;;;;;;;4.17;2.97;;;27.90;95.90;;;;;;5011341;28;20494;-50
2023/08/20 11:32:10;;;;;;;3.40;2.73;;;27.90;96.00;;;;;;5011683;28;20483;-51
2023/08/20 11:34:38;;;;;;;3.30;3.00;;;28.00;95.60;;;;;;5011489;28;20488;-51
2023/08/20 11:37:04;;;;;;;3.80;2.60;;;27.90;95.20;;;;;;5010998;28;20869;-51
2023/08/20 11:39:31;;;;;;;3.20;2.77;;;27.90;94.90;;;;;;5011540;28;20859;-51
2023/08/20 11:42:01;;;;;;;4.57;3.27;;;27.90;94.90;;;;;;5011471;28;20962;-51
2023/08/20 11:44:28;;;;;;;6.33;2.70;;;27.80;94.80;;;;;;5011106;28;20506;-51
2023/08/20 11:46:54;;;;;;;4.10;2.83;;;28.00;94.70;;;;;;5011368;28;20939;-51
2023/08/20 11:49:28;;;;;;;3.47;3.03;;;28.00;94.30;;;;;;5011215;28;20448;-51
2023/08/20 11:51:57;;;;;;;4.73;3.30;;;28.00;93.70;;;;;;5011366;28;20452;-50
2023/08/20 11:54:25;;;;;;;4.33;2.90;;;28.00;93.90;;;;;;5011149;28;20602;-51
2023/08/20 11:56:53;;;;;;;4.40;2.77;;;27.90;94.10;;;;;;5010645;28;20475;-51
2023/08/20 11:59:21;;;;;;;3.40;2.63;;;27.50;93.80;;;;;;5011235;28;20444;-51
2023/08/20 12:01:51;;;;;;;5.27;2.90;;;27.90;94.00;;;;;;5012887;28;20532;-51
2023/08/20 12:04:18;;;;;;;5.37;3.27;;;28.00;94.10;;;;;;5014839;28;20463;-51
2023/08/20 12:06:44;;;;;;;4.80;3.27;;;28.00;94.00;;;;;;5014357;28;20444;-50
2023/08/20 12:09:21;;;;;;;3.50;3.20;;;28.10;94.00;;;;;;5014833;28;20432;-50
2023/08/20 12:11:50;;;;;;;3.53;2.80;;;28.10;93.60;;;;;;5014991;28;20499;-52
2023/08/20 12:14:17;;;;;;;3.40;3.10;;;28.10;93.70;;;;;;5014852;28;20516;-52
2023/08/20 12:16:45;;;;;;;3.50;2.93;;;27.90;93.90;;;;;;5015017;28;20442;-52
2023/08/20 12:19:13;;;;;;;3.93;2.80;;;28.00;93.90;;;;;;5014830;28;20443;-52
2023/08/20 12:21:40;;;;;;;3.20;2.83;;;27.90;93.80;;;;;;5014827;28;20440;-52
2023/08/20 12:24:08;;;;;;;4.53;2.90;;;28.10;93.40;;;;;;5014535;28;20441;-52
2023/08/20 12:26:34;;;;;;;3.33;3.00;;;28.10;93.70;;;;;;5014502;28;20483;-52
2023/08/20 12:29:01;;;;;;;6.67;3.10;;;27.90;93.70;;;;;;5014414;28;20518;-52
2023/08/20 12:31:27;;;;;;;3.30;2.77;;;27.70;93.60;;;;;;5014246;28;20428;-52
2023/08/20 12:33:55;;;;;;;3.97;2.43;;;28.10;93.00;;;;;;5014243;28;20436;-50
2023/08/20 12:36:22;;;;;;;5.30;2.40;;;28.20;93.20;;;;;;5014604;28;20868;-51